Cartola — C6ZV8 — position and weather

sailwx.info

Track history (hours):
 
Tides and Currents Weather Stations Pressure Air Temp Water Temp Dewpoint Dewpoint Depression Visibility Wind Speed Wind Dir Waves Ship Positions

Cartola

Last reported at 2018-Jul-21 10:55 UTC. Time now 2018-Aug-14 13:46 UTC.
Position N 32°03' E 120°25'.
Warning: this ship's position is 24 days out of date.

Length 272 m; draft 9 m.

Type: Ship. MMSI: 311067700.

Date/timePositionNaut miles runAvg speedWind from/ knotsBaromVisibWave heightAir tempDewpointWater temp
2018-Jul-21 10:55N 32°03' E 120°25'0 0.0
2018-Jul-21 10:30N 32°03' E 120°25'1 1.8
2018-Jul-21 10:00N 32°03' E 120°25'2 4.1
2018-Jul-21 09:29N 32°04' E 120°28'2 4.0
2018-Jul-21 09:00N 32°04' E 120°30'2 4.4
2018-Jul-21 08:30N 32°04' E 120°32'76 3.3
2018-Jul-20 09:37N 31°17' E 121°44'1 8.5
2018-Jul-20 09:30N 31°17' E 121°45'5 9.2
2018-Jul-20 09:00N 31°13' E 121°48'610.6
2018-Jul-20 08:28N 31°09' E 121°53'611.8
2018-Jul-20 08:00N 31°06' E 121°58'612.8
2018-Jul-20 07:30N 31°04' E 122°06'510.8
2018-Jul-20 07:00N 31°03' E 122°12'4 7.8
2018-Jul-20 06:30N 31°03' E 122°16'4 7.2
2018-Jul-20 05:59N 31°02' E 122°21'5 7.7
2018-Jul-20 05:17N 31°01' E 122°27'10 1.5
2018-Jul-19 22:30N 31°01' E 122°39'0 0.0
2018-Jul-19 09:35N 31°01' E 122°38'0 0.4
2018-Jul-19 09:24N 31°01' E 122°38'  
Track history (hours):
 
Tides and Currents Weather Stations Pressure Air Temp Water Temp Dewpoint Dewpoint Depression Visibility Wind Speed Wind Dir Waves Ship Positions

Cartola

Last reported at 2018-Jul-21 10:55 UTC. Time now 2018-Aug-14 13:46 UTC.
Position N 32°03' E 120°25'.
Warning: this ship's position is 24 days out of date.

Length 272 m; draft 9 m.

Type: Ship. MMSI: 311067700.

Date/timePositionNaut miles runAvg speedWind from/ knotsBaromVisibWave heightAir tempDewpointWater temp
2018-Jul-21 10:55N 32°03' E 120°25'0 0.0
2018-Jul-21 10:30N 32°03' E 120°25'1 1.8
2018-Jul-21 10:00N 32°03' E 120°25'2 4.1
2018-Jul-21 09:29N 32°04' E 120°28'2 4.0
2018-Jul-21 09:00N 32°04' E 120°30'2 4.4
2018-Jul-21 08:30N 32°04' E 120°32'76 3.3
2018-Jul-20 09:37N 31°17' E 121°44'1 8.5
2018-Jul-20 09:30N 31°17' E 121°45'5 9.2
2018-Jul-20 09:00N 31°13' E 121°48'610.6
2018-Jul-20 08:28N 31°09' E 121°53'611.8
2018-Jul-20 08:00N 31°06' E 121°58'612.8
2018-Jul-20 07:30N 31°04' E 122°06'510.8
2018-Jul-20 07:00N 31°03' E 122°12'4 7.8
2018-Jul-20 06:30N 31°03' E 122°16'4 7.2
2018-Jul-20 05:59N 31°02' E 122°21'5 7.7
2018-Jul-20 05:17N 31°01' E 122°27'10 1.5
2018-Jul-19 22:30N 31°01' E 122°39'0 0.0
2018-Jul-19 09:35N 31°01' E 122°38'0 0.4
2018-Jul-19 09:24N 31°01' E 122°38'  

Dump ship's entire track history